Time,TemperatureF,DewpointF,PressureIn,WindDirection,WindDirectionDegrees,WindSpeedMPH,WindSpeedGustMPH,Humidity,HourlyPrecipIn,Conditions,Clouds,dailyrainin,SoftwareType,DateUTC
2013-02-24 00:00:00,28.0,26.8,30.02,NE,53,1.0,1.0,95,0.00,,,0.00,Wunderground v.1.15,2013-02-24 05:00:00,
2013-02-24 00:10:00,27.8,26.6,30.01,NNW,333,0.0,0.0,95,0.00,,,0.00,Wunderground v.1.15,2013-02-24 05:10:00,
2013-02-24 00:20:00,27.7,26.5,30.01,East,93,1.0,5.0,95,0.00,,,0.00,Wunderground v.1.15,2013-02-24 05:20:00,
2013-02-24 00:30:00,27.5,26.3,30.01,ESE,118,2.0,2.0,95,0.00,,,0.00,Wunderground v.1.15,2013-02-24 05:30:00,
2013-02-24 00:40:00,27.5,26.3,30.00,NE,53,1.0,1.0,95,0.00,,,0.00,Wunderground v.1.15,2013-02-24 05:40:00,
2013-02-24 00:50:00,27.4,26.4,29.99,East,81,0.0,2.0,96,0.00,,,0.00,Wunderground v.1.15,2013-02-24 05:50:00,
2013-02-24 01:00:00,27.4,26.4,29.99,East,100,1.0,2.0,96,0.00,,,0.00,Wunderground v.1.15,2013-02-24 06:00:00,
2013-02-24 01:10:00,27.4,26.4,29.99,NE,41,1.0,4.0,96,0.00,,,0.00,Wunderground v.1.15,2013-02-24 06:10:00,
2013-02-24 01:20:00,27.3,26.3,29.98,East,86,1.0,1.0,96,0.00,,,0.00,Wunderground v.1.15,2013-02-24 06:20:00,
2013-02-24 01:30:00,27.3,26.3,29.98,North,11,1.0,1.0,96,0.00,,,0.00,Wunderground v.1.15,2013-02-24 06:30:00,
2013-02-24 01:40:00,27.4,26.4,29.98,North,1,0.0,0.0,96,0.00,,,0.00,Wunderground v.1.15,2013-02-24 06:40:00,
2013-02-24 01:50:00,27.3,26.3,29.98,NNE,25,0.0,0.0,96,0.00,,,0.00,Wunderground v.1.15,2013-02-24 06:50:00,
2013-02-24 02:00:00,27.2,26.2,29.98,NNE,25,0.0,0.0,96,0.00,,,0.00,Wunderground v.1.15,2013-02-24 07:00:00,
2013-02-24 02:10:00,27.1,26.1,29.97,NNE,24,0.0,1.0,96,0.00,,,0.00,Wunderground v.1.15,2013-02-24 07:10:00,
2013-02-24 02:20:00,27.0,26.0,29.96,NE,39,0.0,0.0,96,0.00,,,0.00,Wunderground v.1.15,2013-02-24 07:20:00,
2013-02-24 02:30:00,27.0,26.0,29.96,NE,47,0.0,0.0,96,0.00,,,0.00,Wunderground v.1.15,2013-02-24 07:30:00,
2013-02-24 02:40:00,26.9,25.9,29.96,NNE,13,0.0,1.0,96,0.00,,,0.00,Wunderground v.1.15,2013-02-24 07:40:00,
2013-02-24 02:50:00,26.9,25.9,29.95,NE,34,0.0,0.0,96,0.00,,,0.00,Wunderground v.1.15,2013-02-24 07:50:00,
2013-02-24 03:00:00,26.9,25.9,29.95,SW,221,0.0,0.0,96,0.00,,,0.00,Wunderground v.1.15,2013-02-24 08:00:00,
2013-02-24 03:10:00,27.0,26.0,29.94,ENE,64,0.0,0.0,96,0.00,,,0.00,Wunderground v.1.15,2013-02-24 08:10:00,
2013-02-24 03:20:00,27.0,26.0,29.93,NNE,23,0.0,0.0,96,0.00,,,0.00,Wunderground v.1.15,2013-02-24 08:20:00,
2013-02-24 03:30:00,27.1,26.1,29.93,NNE,25,1.0,2.0,96,0.00,,,0.00,Wunderground v.1.15,2013-02-24 08:30:00,
2013-02-24 03:40:00,27.2,26.2,29.92,North,355,0.0,1.0,96,0.00,,,0.00,Wunderground v.1.15,2013-02-24 08:40:00,
2013-02-24 03:50:00,27.2,26.2,29.93,North,11,1.0,2.0,96,0.00,,,0.00,Wunderground v.1.15,2013-02-24 08:50:00,
2013-02-24 04:00:00,27.3,26.3,29.93,NNW,348,1.0,1.0,96,0.00,,,0.00,Wunderground v.1.15,2013-02-24 09:00:00,
2013-02-24 04:10:00,27.3,26.3,29.92,East,100,0.0,0.0,96,0.00,,,0.00,Wunderground v.1.15,2013-02-24 09:10:00,
2013-02-24 04:20:00,27.3,26.3,29.92,NE,39,0.0,0.0,96,0.00,,,0.00,Wunderground v.1.15,2013-02-24 09:20:00,
2013-02-24 04:30:00,27.5,26.8,29.92,ENE,77,1.0,1.0,97,0.00,,,0.00,Wunderground v.1.15,2013-02-24 09:30:00,
2013-02-24 04:40:00,27.5,26.8,29.91,NE,56,1.0,1.0,97,0.00,,,0.00,Wunderground v.1.15,2013-02-24 09:40:00,
2013-02-24 04:50:00,27.6,26.9,29.89,ENE,72,0.0,1.0,97,0.00,,,0.00,Wunderground v.1.15,2013-02-24 09:50:00,
2013-02-24 05:00:00,27.7,27.0,29.89,ESE,110,0.0,0.0,97,0.00,,,0.00,Wunderground v.1.15,2013-02-24 10:00:00,
2013-02-24 05:10:00,27.7,27.0,29.90,North,353,0.0,0.0,97,0.00,,,0.00,Wunderground v.1.15,2013-02-24 10:10:00,
2013-02-24 05:20:00,27.8,27.1,29.89,NE,55,0.0,0.0,97,0.00,,,0.00,Wunderground v.1.15,2013-02-24 10:20:00,
2013-02-24 05:30:00,27.8,26.8,29.89,West,281,0.0,1.0,96,0.00,,,0.00,Wunderground v.1.15,2013-02-24 10:30:00,
2013-02-24 05:40:00,27.8,26.8,29.89,North,6,0.0,0.0,96,0.00,,,0.00,Wunderground v.1.15,2013-02-24 10:40:00,
2013-02-24 05:50:00,27.7,26.7,29.89,NNE,25,0.0,0.0,96,0.00,,,0.00,Wunderground v.1.15,2013-02-24 10:50:00,
2013-02-24 06:00:00,27.7,26.7,29.89,NNE,19,0.0,0.0,96,0.00,,,0.00,Wunderground v.1.15,2013-02-24 11:00:00,
2013-02-24 06:10:00,27.6,27.4,29.88,NE,48,1.0,2.0,99,0.00,,,0.00,Wunderground v.1.15,2013-02-24 11:10:00,
2013-02-24 06:20:00,27.6,27.4,29.88,NE,46,2.0,2.0,99,0.00,,,0.00,Wunderground v.1.15,2013-02-24 11:20:00,
2013-02-24 06:30:00,27.6,27.4,29.88,NE,46,2.0,3.0,99,0.00,,,0.00,Wunderground v.1.15,2013-02-24 11:30:00,
2013-02-24 06:40:00,27.6,27.1,29.89,NNE,25,3.0,3.0,98,0.00,,,0.00,Wunderground v.1.15,2013-02-24 11:40:00,
2013-02-24 06:50:00,27.6,27.1,29.88,NNE,26,3.0,4.0,98,0.00,,,0.00,Wunderground v.1.15,2013-02-24 11:50:00,
2013-02-24 07:00:00,27.6,27.1,29.88,NNE,27,4.0,4.0,98,0.00,,,0.00,Wunderground v.1.15,2013-02-24 12:00:00,
2013-02-24 07:10:00,27.6,27.1,29.88,NNE,33,4.0,4.0,98,0.00,,,0.00,Wunderground v.1.15,2013-02-24 12:10:00,
2013-02-24 07:20:00,27.6,27.1,29.88,NNE,30,4.0,4.0,98,0.00,,,0.00,Wunderground v.1.15,2013-02-24 12:20:00,
2013-02-24 07:30:00,27.6,27.1,29.88,NE,39,5.0,6.0,98,0.00,,,0.00,Wunderground v.1.15,2013-02-24 12:30:00,
2013-02-24 07:40:00,27.6,27.1,29.87,NNE,27,6.0,6.0,98,0.00,,,0.00,Wunderground v.1.15,2013-02-24 12:40:00,
2013-02-24 07:50:00,27.6,27.1,29.87,NE,41,5.0,5.0,98,0.00,,,0.00,Wunderground v.1.15,2013-02-24 12:50:00,
2013-02-24 08:00:00,27.6,27.4,29.87,NE,46,4.0,4.0,99,0.00,,,0.00,Wunderground v.1.15,2013-02-24 13:00:00,
2013-02-24 08:10:00,27.8,27.6,29.87,NE,35,5.0,5.0,99,0.00,,,0.00,Wunderground v.1.15,2013-02-24 13:10:00,
2013-02-24 08:20:00,27.9,27.7,29.87,NE,34,4.0,5.0,99,0.00,,,0.00,Wunderground v.1.15,2013-02-24 13:20:00,
2013-02-24 08:30:00,27.9,27.7,29.87,NE,41,4.0,4.0,99,0.00,,,0.00,Wunderground v.1.15,2013-02-24 13:30:00,
2013-02-24 08:40:00,27.9,27.7,29.86,NNE,30,4.0,6.0,99,0.00,,,0.00,Wunderground v.1.15,2013-02-24 13:40:00,
2013-02-24 08:50:00,28.1,27.9,29.86,NNE,33,5.0,5.0,99,0.00,,,0.00,Wunderground v.1.15,2013-02-24 13:50:00,
2013-02-24 09:00:00,28.1,27.9,29.86,NE,37,4.0,4.0,99,0.00,,,0.00,Wunderground v.1.15,2013-02-24 14:00:00,
2013-02-24 09:10:00,28.2,28.0,29.85,NNE,22,5.0,5.0,99,0.00,,,0.00,Wunderground v.1.15,2013-02-24 14:10:00,
2013-02-24 09:20:00,28.2,28.0,29.85,North,9,6.0,7.0,99,0.00,,,0.00,Wunderground v.1.15,2013-02-24 14:20:00,
2013-02-24 09:30:00,28.2,28.0,29.85,NNE,30,5.0,5.0,99,0.00,,,0.00,Wunderground v.1.15,2013-02-24 14:30:00,
2013-02-24 09:40:00,28.2,28.0,29.84,NNE,27,5.0,5.0,99,0.00,,,0.00,Wunderground v.1.15,2013-02-24 14:40:00,
2013-02-24 09:50:00,28.2,28.0,29.83,NE,42,5.0,5.0,99,0.00,,,0.00,Wunderground v.1.15,2013-02-24 14:50:00,
2013-02-24 10:00:00,28.1,27.9,29.83,NNE,24,6.0,6.0,99,0.00,,,0.00,Wunderground v.1.15,2013-02-24 15:00:00,
2013-02-24 10:10:00,28.1,27.9,29.84,NE,49,5.0,6.0,99,0.00,,,0.00,Wunderground v.1.15,2013-02-24 15:10:00,
2013-02-24 10:20:00,28.1,27.6,29.83,NE,38,5.0,5.0,98,0.00,,,0.00,Wunderground v.1.15,2013-02-24 15:20:00,
2013-02-24 10:30:00,28.1,27.6,29.83,NNE,25,5.0,9.0,98,0.00,,,0.00,Wunderground v.1.15,2013-02-24 15:30:00,
2013-02-24 10:40:00,27.9,27.4,29.82,NNE,25,6.0,6.0,98,0.00,,,0.00,Wunderground v.1.15,2013-02-24 15:40:00,
2013-02-24 10:50:00,28.1,27.6,29.82,NNE,22,5.0,5.0,98,0.00,,,0.00,Wunderground v.1.15,2013-02-24 15:50:00,
2013-02-24 11:00:00,28.1,27.9,29.82,NE,44,6.0,6.0,99,0.00,,,0.00,Wunderground v.1.15,2013-02-24 16:00:00,
2013-02-24 11:10:00,28.1,27.6,29.82,NE,44,6.0,6.0,98,0.00,,,0.00,Wunderground v.1.15,2013-02-24 16:10:00,
2013-02-24 11:20:00,27.9,27.4,29.81,NNE,22,7.0,7.0,98,0.00,,,0.00,Wunderground v.1.15,2013-02-24 16:20:00,
2013-02-24 11:30:00,28.1,27.9,29.81,NNE,29,5.0,6.0,99,0.00,,,0.00,Wunderground v.1.15,2013-02-24 16:30:00,
2013-02-24 11:40:00,28.1,27.9,29.80,North,0,6.0,9.0,99,0.00,,,0.00,Wunderground v.1.15,2013-02-24 16:40:00,
2013-02-24 11:50:00,28.1,27.9,29.80,NNE,13,7.0,7.0,99,0.00,,,0.00,Wunderground v.1.15,2013-02-24 16:50:00,
2013-02-24 12:00:00,28.1,27.9,29.80,NNE,15,7.0,7.0,99,0.00,,,0.00,Wunderground v.1.15,2013-02-24 17:00:00,
2013-02-24 12:10:00,28.1,27.9,29.79,NNE,23,7.0,9.0,99,0.00,,,0.00,Wunderground v.1.15,2013-02-24 17:10:00,
2013-02-24 12:20:00,27.9,27.7,29.79,NNE,32,8.0,11.0,99,0.00,,,0.00,Wunderground v.1.15,2013-02-24 17:20:00,
2013-02-24 12:30:00,27.9,27.7,29.79,NE,37,8.0,10.0,99,0.00,,,0.00,Wunderground v.1.15,2013-02-24 17:30:00,
2013-02-24 12:40:00,27.9,27.7,29.78,NE,35,7.0,9.0,99,0.00,,,0.00,Wunderground v.1.15,2013-02-24 17:40:00,
2013-02-24 12:50:00,27.9,27.7,29.77,NE,46,8.0,8.0,99,0.00,,,0.00,Wunderground v.1.15,2013-02-24 17:50:00,
2013-02-24 13:00:00,27.9,27.7,29.77,NNE,18,8.0,8.0,99,0.00,,,0.00,Wunderground v.1.15,2013-02-24 18:00:00,
2013-02-24 13:10:00,27.9,27.7,29.76,NE,41,7.0,7.0,99,0.00,,,0.00,Wunderground v.1.15,2013-02-24 18:10:00,
2013-02-24 13:20:00,27.8,27.6,29.76,NNE,14,7.0,7.0,99,0.00,,,0.00,Wunderground v.1.15,2013-02-24 18:20:00,
2013-02-24 13:30:00,27.8,27.6,29.76,NNE,13,9.0,9.0,99,0.00,,,0.00,Wunderground v.1.15,2013-02-24 18:30:00,
2013-02-24 13:40:00,27.6,27.4,29.76,NNE,21,7.0,7.0,99,0.00,,,0.00,Wunderground v.1.15,2013-02-24 18:40:00,
2013-02-24 13:50:00,27.6,27.4,29.76,NNE,30,6.0,6.0,99,0.00,,,0.00,Wunderground v.1.15,2013-02-24 18:50:00,
2013-02-24 14:00:00,27.5,27.3,29.76,North,0,8.0,8.0,99,0.00,,,0.00,Wunderground v.1.15,2013-02-24 19:00:00,
2013-02-24 14:10:00,27.5,27.3,29.76,NNE,20,8.0,8.0,99,0.00,,,0.00,Wunderground v.1.15,2013-02-24 19:10:00,
2013-02-24 14:20:00,27.5,27.3,29.76,NNE,21,7.0,9.0,99,0.00,,,0.00,Wunderground v.1.15,2013-02-24 19:20:00,
2013-02-24 14:30:00,27.6,27.4,29.76,NNE,30,9.0,9.0,99,0.00,,,0.00,Wunderground v.1.15,2013-02-24 19:30:00,
2013-02-24 14:40:00,27.6,27.4,29.75,NE,39,5.0,5.0,99,0.00,,,0.00,Wunderground v.1.15,2013-02-24 19:40:00,
2013-02-24 14:50:00,27.8,27.6,29.75,North,350,5.0,9.0,99,0.00,,,0.00,Wunderground v.1.15,2013-02-24 19:50:00,
2013-02-24 15:00:00,27.9,27.7,29.75,NNE,23,7.0,11.0,99,0.00,,,0.00,Wunderground v.1.15,2013-02-24 20:00:00,
2013-02-24 15:10:00,27.9,27.7,29.75,ENE,63,9.0,9.0,99,0.00,,,0.00,Wunderground v.1.15,2013-02-24 20:10:00,
2013-02-24 15:20:00,27.8,27.6,29.75,NE,42,9.0,9.0,99,0.00,,,0.00,Wunderground v.1.15,2013-02-24 20:20:00,
2013-02-24 15:30:00,27.8,27.6,29.75,NNE,27,8.0,9.0,99,0.00,,,0.00,Wunderground v.1.15,2013-02-24 20:30:00,
2013-02-24 15:40:00,27.6,27.4,29.75,NE,56,8.0,8.0,99,0.00,,,0.00,Wunderground v.1.15,2013-02-24 20:40:00,
2013-02-24 15:50:00,27.6,27.4,29.75,NNE,30,8.0,8.0,99,0.00,,,0.00,Wunderground v.1.15,2013-02-24 20:50:00,
2013-02-24 16:00:00,27.5,27.3,29.75,NNE,27,7.0,7.0,99,0.00,,,0.00,Wunderground v.1.15,2013-02-24 21:00:00,
2013-02-24 16:10:00,27.5,27.3,29.75,NE,41,6.0,6.0,99,0.00,,,0.00,Wunderground v.1.15,2013-02-24 21:10:00,
2013-02-24 16:20:00,27.5,27.3,29.75,NE,39,6.0,11.0,99,0.00,,,0.00,Wunderground v.1.15,2013-02-24 21:20:00,
2013-02-24 16:30:00,27.5,27.3,29.75,NNE,28,8.0,8.0,99,0.00,,,0.00,Wunderground v.1.15,2013-02-24 21:30:00,
2013-02-24 16:40:00,27.5,27.3,29.75,NNE,18,8.0,8.0,99,0.00,,,0.00,Wunderground v.1.15,2013-02-24 21:40:00,
2013-02-24 16:50:00,27.5,27.3,29.75,NNE,26,5.0,5.0,99,0.00,,,0.00,Wunderground v.1.15,2013-02-24 21:50:00,
2013-02-24 17:00:00,27.5,27.3,29.75,North,8,4.0,6.0,99,0.00,,,0.00,Wunderground v.1.15,2013-02-24 22:00:00,
2013-02-24 17:10:00,27.5,27.3,29.75,North,6,5.0,5.0,99,0.00,,,0.00,Wunderground v.1.15,2013-02-24 22:10:00,
2013-02-24 17:20:00,27.5,27.3,29.75,NW,323,6.0,6.0,99,0.00,,,0.00,Wunderground v.1.15,2013-02-24 22:20:00,
2013-02-24 17:30:00,27.2,27.0,29.75,NNE,18,10.0,10.0,99,0.00,,,0.00,Wunderground v.1.15,2013-02-24 22:30:00,
2013-02-24 17:40:00,27.0,26.8,29.76,NNE,17,8.0,8.0,99,0.00,,,0.00,Wunderground v.1.15,2013-02-24 22:40:00,
2013-02-24 17:50:00,27.0,26.8,29.76,NNE,30,8.0,8.0,99,0.00,,,0.00,Wunderground v.1.15,2013-02-24 22:50:00,
2013-02-24 18:00:00,26.9,26.7,29.76,NNE,16,8.0,9.0,99,0.00,,,0.00,Wunderground v.1.15,2013-02-24 23:00:00,
2013-02-24 18:10:00,26.7,26.2,29.76,NNE,20,9.0,9.0,98,0.00,,,0.00,Wunderground v.1.15,2013-02-24 23:10:00,
2013-02-24 18:20:00,26.6,26.1,29.77,North,6,7.0,7.0,98,0.00,,,0.00,Wunderground v.1.15,2013-02-24 23:20:00,
2013-02-24 18:30:00,26.6,26.1,29.77,North,4,5.0,5.0,98,0.00,,,0.00,Wunderground v.1.15,2013-02-24 23:30:00,
2013-02-24 18:40:00,26.6,26.1,29.77,North,6,5.0,5.0,98,0.00,,,0.00,Wunderground v.1.15,2013-02-24 23:40:00,
2013-02-24 18:50:00,26.6,26.1,29.77,North,358,5.0,7.0,98,0.00,,,0.00,Wunderground v.1.15,2013-02-24 23:50:00,
2013-02-24 19:00:00,26.6,26.1,29.77,North,358,6.0,8.0,98,0.00,,,0.00,Wunderground v.1.15,2013-02-25 00:00:00,
2013-02-24 19:10:00,26.7,26.2,29.77,North,358,5.0,5.0,98,0.00,,,0.00,Wunderground v.1.15,2013-02-25 00:10:00,
2013-02-24 19:20:00,26.9,26.4,29.78,NW,321,5.0,5.0,98,0.00,,,0.00,Wunderground v.1.15,2013-02-25 00:20:00,
2013-02-24 19:30:00,26.9,26.4,29.78,North,0,6.0,7.0,98,0.00,,,0.00,Wunderground v.1.15,2013-02-25 00:30:00,
2013-02-24 19:40:00,27.0,26.5,29.78,NNW,340,6.0,10.0,98,0.00,,,0.00,Wunderground v.1.15,2013-02-25 00:40:00,
2013-02-24 19:50:00,27.0,26.3,29.78,North,352,6.0,6.0,97,0.00,,,0.00,Wunderground v.1.15,2013-02-25 00:50:00,
2013-02-24 20:00:00,27.0,26.3,29.78,NNW,347,5.0,5.0,97,0.00,,,0.00,Wunderground v.1.15,2013-02-25 01:00:00,
2013-02-24 20:10:00,27.0,26.3,29.78,NW,315,5.0,5.0,97,0.00,,,0.00,Wunderground v.1.15,2013-02-25 01:10:00,
2013-02-24 20:20:00,27.0,26.3,29.79,North,0,5.0,12.0,97,0.00,,,0.00,Wunderground v.1.15,2013-02-25 01:20:00,
2013-02-24 20:30:00,27.0,26.3,29.79,NNW,346,6.0,6.0,97,0.00,,,0.00,Wunderground v.1.15,2013-02-25 01:30:00,
2013-02-24 20:40:00,26.9,26.2,29.80,NNW,331,5.0,6.0,97,0.00,,,0.00,Wunderground v.1.15,2013-02-25 01:40:00,
2013-02-24 20:50:00,26.9,25.9,29.80,NNW,344,6.0,6.0,96,0.00,,,0.00,Wunderground v.1.15,2013-02-25 01:50:00,
2013-02-24 21:00:00,26.7,25.7,29.80,NNW,340,5.0,5.0,96,0.00,,,0.00,Wunderground v.1.15,2013-02-25 02:00:00,
2013-02-24 21:10:00,26.7,25.7,29.81,NNW,345,5.0,5.0,96,0.00,,,0.00,Wunderground v.1.15,2013-02-25 02:10:00,
2013-02-24 21:20:00,26.6,25.6,29.81,NNW,334,4.0,4.0,96,0.00,,,0.00,Wunderground v.1.15,2013-02-25 02:20:00,
2013-02-24 21:30:00,26.6,25.6,29.81,NNW,335,4.0,5.0,96,0.00,,,0.00,Wunderground v.1.15,2013-02-25 02:30:00,
2013-02-24 21:40:00,26.4,25.2,29.81,NNW,328,5.0,5.0,95,0.00,,,0.00,Wunderground v.1.15,2013-02-25 02:40:00,
2013-02-24 21:50:00,26.3,25.1,29.81,NNW,339,4.0,4.0,95,0.00,,,0.00,Wunderground v.1.15,2013-02-25 02:50:00,
2013-02-24 22:00:00,26.3,25.1,29.81,NNW,339,5.0,5.0,95,0.00,,,0.00,Wunderground v.1.15,2013-02-25 03:00:00,
2013-02-24 22:10:00,26.1,24.9,29.81,WNW,297,5.0,5.0,95,0.00,,,0.00,Wunderground v.1.15,2013-02-25 03:10:00,
2013-02-24 22:20:00,26.1,24.9,29.82,NW,323,4.0,4.0,95,0.00,,,0.00,Wunderground v.1.15,2013-02-25 03:20:00,
2013-02-24 22:30:00,26.0,24.5,29.82,NW,326,4.0,5.0,94,0.00,,,0.00,Wunderground v.1.15,2013-02-25 03:30:00,
2013-02-24 22:40:00,26.0,24.5,29.82,NW,323,4.0,4.0,94,0.00,,,0.00,Wunderground v.1.15,2013-02-25 03:40:00,
2013-02-24 22:50:00,25.8,24.3,29.82,WNW,287,5.0,6.0,94,0.00,,,0.00,Wunderground v.1.15,2013-02-25 03:50:00,
2013-02-24 23:00:00,25.7,24.2,29.82,North,351,6.0,9.0,94,0.00,,,0.00,Wunderground v.1.15,2013-02-25 04:00:00,
2013-02-24 23:10:00,25.6,23.9,29.82,NW,324,5.0,5.0,93,0.00,,,0.00,Wunderground v.1.15,2013-02-25 04:10:00,
2013-02-24 23:20:00,25.4,23.7,29.83,NW,323,5.0,5.0,93,0.00,,,0.00,Wunderground v.1.15,2013-02-25 04:20:00,
2013-02-24 23:30:00,25.4,23.4,29.83,NW,319,5.0,5.0,92,0.00,,,0.00,Wunderground v.1.15,2013-02-25 04:30:00,
2013-02-24 23:40:00,25.3,23.3,29.84,NNW,342,4.0,4.0,92,0.00,,,0.00,Wunderground v.1.15,2013-02-25 04:40:00,
2013-02-24 23:50:00,25.0,23.0,29.84,North,351,5.0,5.0,92,0.00,,,0.00,Wunderground v.1.15,2013-02-25 04:50:00,